createdAt,value
2023-05-21T00:01:20.406Z,8.00
2023-05-21T00:03:47.525Z,9.20
2023-05-21T00:06:14.599Z,8.20
2023-05-21T00:08:41.699Z,9.17
2023-05-21T00:11:08.700Z,8.90
2023-05-21T00:13:35.699Z,8.37
2023-05-21T00:16:05.957Z,8.73
2023-05-21T00:18:33.015Z,8.77
2023-05-21T00:21:00.131Z,8.10
2023-05-21T00:23:27.037Z,8.70
2023-05-21T00:25:54.022Z,8.30
2023-05-21T00:28:20.990Z,8.50
2023-05-21T00:30:47.953Z,8.50
2023-05-21T00:33:17.540Z,8.40
2023-05-21T00:35:44.596Z,8.60
2023-05-21T00:38:11.529Z,8.43
2023-05-21T00:40:38.573Z,8.43
2023-05-21T00:43:05.533Z,8.57
2023-05-21T00:45:32.546Z,9.27
2023-05-21T00:47:59.876Z,8.73
2023-05-21T00:50:29.509Z,8.33
2023-05-21T00:52:56.647Z,8.63
2023-05-21T00:55:24.266Z,8.27
2023-05-21T00:57:51.310Z,8.00
2023-05-21T01:00:18.410Z,9.23
2023-05-21T01:02:46.272Z,8.97
2023-05-21T01:05:13.345Z,8.83
2023-05-21T01:07:42.916Z,8.30
2023-05-21T01:10:11.536Z,8.23
2023-05-21T01:12:39.859Z,8.57
2023-05-21T01:15:08.317Z,8.60
2023-05-21T01:17:35.703Z,9.20
2023-05-21T01:20:02.875Z,8.33
2023-05-21T01:22:32.662Z,8.87
2023-05-21T01:25:03.360Z,9.20
2023-05-21T01:27:30.326Z,9.27
2023-05-21T01:29:57.619Z,8.53
2023-05-21T01:32:29.243Z,8.80
2023-05-21T01:35:11.315Z,8.43
2023-05-21T01:37:50.699Z,8.20
2023-05-21T01:40:26.074Z,8.83
2023-05-21T01:42:53.422Z,8.23
2023-05-21T01:45:22.611Z,9.70
2023-05-21T01:47:51.896Z,9.37
2023-05-21T01:50:19.118Z,8.13
2023-05-21T01:52:50.298Z,11.03
2023-05-21T01:55:17.453Z,8.17
2023-05-21T01:57:47.037Z,8.60
2023-05-21T02:00:15.072Z,8.40
2023-05-21T02:02:42.110Z,7.90
2023-05-21T02:05:10.078Z,8.37
2023-05-21T02:07:37.036Z,7.90
2023-05-21T02:10:04.456Z,8.30
2023-05-21T02:12:31.426Z,8.87
2023-05-21T02:15:01.047Z,9.20
2023-05-21T02:17:28.047Z,8.87
2023-05-21T02:19:54.981Z,8.40
2023-05-21T02:22:21.925Z,8.67
2023-05-21T02:24:48.867Z,8.37
2023-05-21T02:27:15.780Z,8.60
2023-05-21T02:29:42.714Z,8.83
2023-05-21T02:32:12.242Z,8.33
2023-05-21T02:34:39.145Z,8.53
2023-05-21T02:37:06.099Z,8.50
2023-05-21T02:39:33.080Z,7.80
2023-05-21T02:42:00.069Z,7.50
2023-05-21T02:44:27.012Z,8.60
2023-05-21T02:46:54.018Z,8.27
2023-05-21T02:49:23.544Z,8.50
2023-05-21T02:51:50.463Z,8.40
2023-05-21T02:54:17.372Z,8.20
2023-05-21T02:56:44.336Z,8.90
2023-05-21T02:59:11.265Z,8.67
2023-05-21T03:01:38.914Z,9.27
2023-05-21T03:04:05.833Z,9.27
2023-05-21T03:06:35.537Z,8.63
2023-05-21T03:09:02.530Z,8.27
2023-05-21T03:11:29.480Z,8.50
2023-05-21T03:13:56.511Z,8.43
2023-05-21T03:16:23.487Z,9.10
2023-05-21T03:18:50.516Z,9.73
2023-05-21T03:21:17.577Z,8.63
2023-05-21T03:23:47.092Z,8.80
2023-05-21T03:26:14.033Z,9.07
2023-05-21T03:28:40.977Z,8.60
2023-05-21T03:31:07.981Z,8.97
2023-05-21T03:33:34.973Z,8.57
2023-05-21T03:36:01.894Z,9.00
2023-05-21T03:38:29.006Z,8.53
2023-05-21T03:40:58.531Z,8.00
2023-05-21T03:43:25.485Z,8.63
2023-05-21T03:45:52.505Z,8.57
2023-05-21T03:48:19.418Z,9.67
2023-05-21T03:50:46.583Z,8.97
2023-05-21T03:53:13.577Z,8.73
2023-05-21T03:55:40.646Z,9.33
2023-05-21T03:58:10.299Z,8.60
2023-05-21T04:00:37.290Z,9.20
2023-05-21T04:03:04.340Z,9.00
2023-05-21T04:05:31.353Z,8.60
2023-05-21T04:07:58.279Z,8.70
2023-05-21T04:10:25.225Z,9.03
2023-05-21T04:12:52.186Z,9.10
2023-05-21T04:15:21.896Z,8.53
2023-05-21T04:17:48.858Z,9.30
2023-05-21T04:20:16.011Z,10.13
2023-05-21T04:22:42.994Z,8.57
2023-05-21T04:25:10.275Z,9.27
2023-05-21T04:27:37.449Z,8.67
2023-05-21T04:30:05.796Z,8.43
2023-05-21T04:32:35.451Z,9.03
2023-05-21T04:35:02.400Z,9.27
2023-05-21T04:37:29.407Z,9.60
2023-05-21T04:39:56.362Z,9.03
2023-05-21T04:42:28.423Z,9.03
2023-05-21T04:44:55.368Z,8.60
2023-05-21T04:47:22.342Z,8.53
2023-05-21T04:49:51.923Z,8.53
2023-05-21T04:52:18.880Z,8.97
2023-05-21T04:54:45.832Z,8.07
2023-05-21T04:57:12.739Z,8.73
2023-05-21T04:59:39.674Z,9.03
2023-05-21T05:02:06.616Z,9.00
2023-05-21T05:04:33.535Z,8.47
2023-05-21T05:07:03.094Z,8.53
2023-05-21T05:09:30.036Z,9.03
2023-05-21T05:11:56.961Z,8.13
2023-05-21T05:14:23.925Z,7.97
2023-05-21T05:16:50.978Z,7.80
2023-05-21T05:19:18.081Z,8.10
2023-05-21T05:21:45.148Z,8.20
2023-05-21T05:24:14.704Z,9.40
2023-05-21T05:26:41.649Z,8.57
2023-05-21T05:29:08.546Z,8.87
2023-05-21T05:31:35.526Z,8.90
2023-05-21T05:34:02.580Z,8.17
2023-05-21T05:36:29.551Z,8.27
2023-05-21T05:38:56.528Z,7.53
2023-05-21T05:41:26.061Z,8.47
2023-05-21T05:43:53.022Z,8.30
2023-05-21T05:46:20.045Z,7.67
2023-05-21T05:48:47.007Z,8.73
2023-05-21T05:51:14.568Z,8.53
2023-05-21T05:53:41.484Z,6.97
2023-05-21T05:56:08.511Z,8.47
2023-05-21T05:58:38.098Z,7.53
2023-05-21T06:01:05.151Z,7.67
2023-05-21T06:03:32.204Z,7.80
2023-05-21T06:05:59.281Z,9.50
2023-05-21T06:08:26.264Z,8.23
2023-05-21T06:10:53.201Z,8.00
2023-05-21T06:13:20.137Z,8.00
2023-05-21T06:15:49.734Z,8.17
2023-05-21T06:18:16.690Z,7.03
2023-05-21T06:20:43.598Z,8.60
2023-05-21T06:23:10.532Z,7.83
2023-05-21T06:25:37.732Z,8.27
2023-05-21T06:28:05.148Z,8.83
2023-05-21T06:30:32.123Z,7.13
2023-05-21T06:33:01.725Z,7.70
2023-05-21T06:35:28.794Z,8.70
2023-05-21T06:37:55.741Z,7.97
2023-05-21T06:40:22.696Z,8.03
2023-05-21T06:42:49.642Z,6.90
2023-05-21T06:45:16.634Z,8.43
2023-05-21T06:47:43.600Z,8.17
2023-05-21T06:50:13.325Z,8.37
2023-05-21T06:52:40.286Z,8.00
2023-05-21T06:55:07.939Z,8.83
2023-05-21T06:57:34.894Z,7.90
2023-05-21T07:00:01.851Z,8.03
2023-05-21T07:02:28.840Z,6.80
2023-05-21T07:04:55.812Z,6.97
2023-05-21T07:07:25.414Z,6.33
2023-05-21T07:09:52.333Z,6.73
2023-05-21T07:12:19.252Z,5.93
2023-05-21T07:14:46.214Z,6.57
2023-05-21T07:17:13.144Z,5.80
2023-05-21T07:19:40.069Z,5.77
2023-05-21T07:22:06.995Z,6.20
2023-05-21T07:24:36.540Z,6.00
2023-05-21T07:27:11.348Z,7.37
2023-05-21T07:29:45.060Z,6.27
2023-05-21T07:32:12.021Z,6.27
2023-05-21T07:34:38.947Z,5.43
2023-05-21T07:37:05.870Z,5.63
2023-05-21T07:39:32.787Z,5.33
2023-05-21T07:42:02.317Z,5.37
2023-05-21T07:44:29.267Z,5.23
2023-05-21T07:46:56.354Z,5.67
2023-05-21T07:49:23.307Z,5.87
2023-05-21T07:51:50.280Z,5.20
2023-05-21T07:54:17.225Z,5.13
2023-05-21T07:56:44.162Z,4.97
2023-05-21T07:59:14.405Z,5.27
2023-05-21T08:01:41.393Z,7.13
2023-05-21T08:04:08.439Z,5.07
2023-05-21T08:06:35.564Z,5.40
2023-05-21T08:09:02.522Z,7.63
2023-05-21T08:11:29.566Z,4.63
2023-05-21T08:13:56.551Z,5.90
2023-05-21T08:16:26.228Z,4.87
2023-05-21T08:18:53.232Z,5.40
2023-05-21T08:21:20.424Z,4.63
2023-05-21T08:23:47.482Z,4.83
2023-05-21T08:26:14.616Z,4.77
2023-05-21T08:28:41.545Z,4.40
2023-05-21T08:31:08.468Z,5.90
2023-05-21T08:33:38.200Z,6.17
2023-05-21T08:36:06.473Z,4.50
2023-05-21T08:38:34.165Z,4.90
2023-05-21T08:41:01.205Z,5.33
2023-05-21T08:43:28.879Z,4.73
2023-05-21T08:45:57.033Z,4.90
2023-05-21T08:48:24.690Z,4.90
2023-05-21T08:50:55.178Z,4.47
2023-05-21T08:53:28.067Z,4.50
2023-05-21T08:55:56.477Z,4.70
2023-05-21T08:58:23.647Z,4.77
2023-05-21T09:00:50.661Z,4.60
2023-05-21T09:03:17.878Z,4.80
2023-05-21T09:05:45.891Z,4.70
2023-05-21T09:08:19.248Z,4.80
2023-05-21T09:10:49.385Z,4.67
2023-05-21T09:13:17.413Z,4.80
2023-05-21T09:15:44.730Z,4.60
2023-05-21T09:18:11.742Z,4.60
2023-05-21T09:20:38.979Z,4.33
2023-05-21T09:23:07.291Z,5.13
2023-05-21T09:25:38.559Z,5.27
2023-05-21T09:28:11.985Z,5.07
2023-05-21T09:30:44.420Z,4.73
2023-05-21T09:33:11.419Z,4.50
2023-05-21T09:35:44.462Z,5.10
2023-05-21T09:38:11.494Z,4.70
2023-05-21T09:40:44.111Z,4.37
2023-05-21T09:43:14.247Z,5.30
2023-05-21T09:45:50.950Z,4.87
2023-05-21T09:48:18.200Z,5.03
2023-05-21T09:50:45.160Z,4.30
2023-05-21T09:53:12.844Z,5.57
2023-05-21T09:55:42.404Z,4.60
2023-05-21T09:58:10.995Z,4.60
2023-05-21T10:00:39.188Z,4.37
2023-05-21T10:03:11.857Z,4.80
2023-05-21T10:05:39.272Z,4.73
2023-05-21T10:08:10.484Z,4.90
2023-05-21T10:10:42.789Z,5.10
2023-05-21T10:13:12.615Z,4.63
2023-05-21T10:15:44.337Z,5.50
2023-05-21T10:18:13.138Z,4.93
2023-05-21T10:20:40.498Z,4.93
2023-05-21T10:23:08.312Z,4.90
2023-05-21T10:25:36.336Z,5.00
2023-05-21T10:28:06.957Z,4.53
2023-05-21T10:30:36.574Z,4.83
2023-05-21T10:33:04.823Z,5.20
2023-05-21T10:35:33.802Z,4.63
2023-05-21T10:38:04.694Z,5.17
2023-05-21T10:40:31.709Z,5.03
2023-05-21T10:43:28.342Z,4.70
2023-05-21T10:46:15.503Z,4.63
2023-05-21T10:48:58.525Z,4.80
2023-05-21T10:51:27.801Z,4.40
2023-05-21T10:54:15.756Z,4.67
2023-05-21T10:56:46.857Z,4.17
2023-05-21T10:59:19.936Z,4.97
2023-05-21T11:01:50.735Z,4.73
2023-05-21T11:04:21.750Z,4.47
2023-05-21T11:06:48.813Z,4.50
2023-05-21T11:09:16.373Z,4.37
2023-05-21T11:11:44.985Z,4.70
2023-05-21T11:14:30.570Z,5.47
2023-05-21T11:17:00.460Z,5.27
2023-05-21T11:19:38.563Z,4.50
2023-05-21T11:22:07.551Z,4.80
2023-05-21T11:24:37.866Z,4.20
2023-05-21T11:27:05.481Z,4.97
2023-05-21T11:29:45.487Z,5.27
2023-05-21T11:32:15.745Z,4.90
2023-05-21T11:34:44.578Z,4.73
2023-05-21T11:37:30.560Z,7.60
2023-05-21T11:39:59.268Z,4.40
2023-05-21T11:42:31.528Z,5.37
2023-05-21T11:44:59.409Z,5.17
2023-05-21T11:47:29.965Z,5.10
2023-05-21T11:49:59.678Z,5.53
2023-05-21T11:52:28.326Z,4.85
2023-05-21T11:54:55.401Z,4.50
2023-05-21T11:57:24.043Z,4.90
2023-05-21T11:59:51.051Z,4.17
2023-05-21T12:02:19.150Z,4.27
2023-05-21T12:04:49.824Z,4.27
2023-05-21T12:07:18.694Z,4.13
2023-05-21T12:09:46.968Z,4.82
2023-05-21T12:12:16.477Z,4.73
2023-05-21T12:14:45.160Z,4.30
2023-05-21T12:17:12.504Z,4.20
2023-05-21T12:19:40.066Z,5.13
2023-05-21T12:22:09.975Z,4.30
2023-05-21T12:24:38.300Z,4.80
2023-05-21T12:27:07.738Z,4.63
2023-05-21T12:29:36.461Z,4.77
2023-05-21T12:32:05.311Z,4.50
2023-05-21T12:34:42.687Z,4.90
2023-05-21T12:37:13.018Z,4.73
2023-05-21T12:39:44.441Z,4.50
2023-05-21T12:42:11.753Z,4.43
2023-05-21T12:44:40.153Z,5.40
2023-05-21T12:47:07.491Z,4.65
2023-05-21T12:49:35.320Z,5.13
2023-05-21T12:52:08.096Z,5.00
2023-05-21T12:54:38.760Z,4.63
2023-05-21T12:57:10.377Z,4.80
2023-05-21T12:59:51.109Z,4.43
2023-05-21T13:02:28.946Z,4.70
2023-05-21T13:05:00.666Z,5.20
2023-05-21T13:07:29.384Z,4.87
2023-05-21T13:09:59.425Z,4.10
2023-05-21T13:12:27.808Z,4.27
2023-05-21T13:14:56.501Z,4.40
2023-05-21T13:17:24.334Z,3.90
2023-05-21T13:20:05.891Z,4.40
2023-05-21T13:22:33.113Z,4.40
2023-05-21T13:25:04.082Z,5.07
2023-05-21T13:27:31.363Z,4.20
2023-05-21T13:29:58.830Z,4.35
2023-05-21T13:32:25.906Z,4.27
2023-05-21T13:34:52.922Z,3.53
2023-05-21T13:37:19.942Z,4.70
2023-05-21T13:39:46.975Z,4.70
2023-05-21T13:42:16.783Z,4.65
2023-05-21T13:44:43.777Z,4.57
2023-05-21T13:47:10.773Z,4.50
2023-05-21T13:49:38.545Z,4.03
2023-05-21T13:52:07.162Z,4.73
2023-05-21T13:54:34.153Z,4.90
2023-05-21T13:57:01.229Z,4.87
2023-05-21T13:59:33.287Z,4.67
2023-05-21T14:02:00.919Z,4.33
2023-05-21T14:04:27.914Z,4.40
2023-05-21T14:06:55.166Z,4.23
2023-05-21T14:09:22.152Z,4.30
2023-05-21T14:11:49.210Z,4.40
2023-05-21T14:14:16.148Z,4.23
2023-05-21T14:16:45.920Z,3.87
2023-05-21T14:19:13.050Z,4.67
2023-05-21T14:21:40.149Z,5.03
2023-05-21T14:24:07.155Z,3.93
2023-05-21T14:26:34.248Z,3.90
2023-05-21T14:29:01.211Z,4.00
2023-05-21T14:31:28.348Z,4.17
2023-05-21T14:33:58.037Z,3.53
2023-05-21T14:36:25.038Z,4.07
2023-05-21T14:38:52.011Z,4.13
2023-05-21T14:41:18.963Z,4.03
2023-05-21T14:43:45.912Z,4.17
2023-05-21T14:46:12.918Z,3.77
2023-05-21T14:48:39.965Z,3.80
2023-05-21T14:51:09.574Z,4.20
2023-05-21T14:53:36.560Z,4.20
2023-05-21T14:56:03.788Z,4.40
2023-05-21T14:58:30.696Z,4.00
2023-05-21T15:00:57.728Z,4.23
2023-05-21T15:03:28.098Z,3.70
2023-05-21T15:05:55.451Z,3.57
2023-05-21T15:08:25.010Z,4.27
2023-05-21T15:10:52.074Z,4.33
2023-05-21T15:13:19.084Z,4.27
2023-05-21T15:15:46.132Z,4.97
2023-05-21T15:18:13.236Z,4.37
2023-05-21T15:20:40.162Z,4.17
2023-05-21T15:23:15.976Z,3.87
2023-05-21T15:25:46.614Z,3.43
2023-05-21T15:28:13.598Z,3.90
2023-05-21T15:30:40.625Z,3.37
2023-05-21T15:33:07.738Z,3.90
2023-05-21T15:35:36.396Z,4.40
2023-05-21T15:38:03.953Z,3.90
2023-05-21T15:40:31.711Z,3.97
2023-05-21T15:43:01.294Z,3.87
2023-05-21T15:45:28.289Z,3.97
2023-05-21T15:47:55.317Z,3.90
2023-05-21T15:50:22.369Z,4.07
2023-05-21T15:52:51.024Z,3.80
2023-05-21T15:55:20.333Z,4.53
2023-05-21T15:57:47.273Z,4.37
2023-05-21T16:00:17.073Z,5.93
2023-05-21T16:02:44.198Z,8.27
2023-05-21T16:05:11.211Z,7.40
2023-05-21T16:07:38.483Z,8.03
2023-05-21T16:10:08.289Z,7.70
2023-05-21T16:12:35.289Z,7.83
2023-05-21T16:15:02.237Z,6.67
2023-05-21T16:17:32.074Z,7.43
2023-05-21T16:19:59.061Z,6.10
2023-05-21T16:22:25.977Z,5.40
2023-05-21T16:24:53.915Z,5.10
2023-05-21T16:27:20.947Z,5.17
2023-05-21T16:29:47.995Z,4.90
2023-05-21T16:32:15.044Z,4.27
2023-05-21T16:34:44.781Z,4.17
2023-05-21T16:37:11.847Z,3.77
2023-05-21T16:39:38.764Z,5.00
2023-05-21T16:42:06.092Z,4.60
2023-05-21T16:44:33.053Z,3.90
2023-05-21T16:47:00.435Z,3.90
2023-05-21T16:49:27.965Z,4.17
2023-05-21T16:51:57.769Z,3.90
2023-05-21T16:54:24.771Z,4.13
2023-05-21T16:56:51.794Z,4.17
2023-05-21T16:59:18.773Z,4.17
2023-05-21T17:01:45.875Z,4.13
2023-05-21T17:04:12.893Z,3.83
2023-05-21T17:06:39.785Z,3.97
2023-05-21T17:09:09.376Z,4.33
2023-05-21T17:11:36.422Z,4.20
2023-05-21T17:14:03.384Z,5.03
2023-05-21T17:16:30.451Z,4.27
2023-05-21T17:18:57.483Z,3.90
2023-05-21T17:21:24.570Z,4.37
2023-05-21T17:23:51.507Z,4.03
2023-05-21T17:26:21.089Z,4.40
2023-05-21T17:28:48.061Z,4.27
2023-05-21T17:31:15.036Z,6.13
2023-05-21T17:33:42.055Z,4.07
2023-05-21T17:36:09.004Z,4.07
2023-05-21T17:38:35.940Z,4.03
2023-05-21T17:41:03.124Z,4.03
2023-05-21T17:43:32.640Z,4.60
2023-05-21T17:45:59.620Z,3.83
2023-05-21T17:48:26.634Z,4.40
2023-05-21T17:50:53.681Z,4.17
2023-05-21T17:53:20.641Z,4.63
2023-05-21T17:55:47.641Z,4.43
2023-05-21T17:58:14.704Z,4.47
2023-05-21T18:00:44.296Z,4.00
2023-05-21T18:03:11.321Z,4.37
2023-05-21T18:05:38.538Z,4.70
2023-05-21T18:08:06.127Z,4.40
2023-05-21T18:10:33.090Z,4.03
2023-05-21T18:13:00.032Z,4.67
2023-05-21T18:15:27.026Z,4.50
2023-05-21T18:17:56.601Z,4.43
2023-05-21T18:20:23.650Z,4.63
2023-05-21T18:22:50.648Z,4.73
2023-05-21T18:25:17.730Z,4.40
2023-05-21T18:27:44.706Z,4.77
2023-05-21T18:30:12.741Z,4.37
2023-05-21T18:32:39.759Z,4.00
2023-05-21T18:35:11.164Z,4.43
2023-05-21T18:37:39.389Z,4.70
2023-05-21T18:40:07.610Z,4.87
2023-05-21T18:42:34.599Z,5.00
2023-05-21T18:45:06.255Z,5.67
2023-05-21T18:47:33.246Z,6.20
2023-05-21T18:50:00.250Z,5.17
2023-05-21T18:52:29.829Z,5.40
2023-05-21T18:54:56.794Z,5.13
2023-05-21T18:57:23.809Z,4.90
2023-05-21T18:59:50.729Z,4.83
2023-05-21T19:02:17.855Z,5.00
2023-05-21T19:04:44.839Z,5.00
2023-05-21T19:07:11.925Z,4.63
2023-05-21T19:09:41.518Z,5.03
2023-05-21T19:12:08.978Z,4.43
2023-05-21T19:14:35.919Z,4.67
2023-05-21T19:17:02.873Z,4.97
2023-05-21T19:19:29.973Z,4.93
2023-05-21T19:21:57.406Z,4.80
2023-05-21T19:24:24.370Z,4.80
2023-05-21T19:26:53.939Z,4.87
2023-05-21T19:29:20.876Z,4.87
2023-05-21T19:31:47.924Z,5.23
2023-05-21T19:34:14.896Z,4.90
2023-05-21T19:36:52.139Z,5.23
2023-05-21T19:39:19.727Z,5.23
2023-05-21T19:41:46.773Z,5.47
2023-05-21T19:44:16.339Z,5.33
2023-05-21T19:46:43.312Z,5.80
2023-05-21T19:49:10.241Z,5.60
2023-05-21T19:51:37.284Z,6.40
2023-05-21T19:54:04.416Z,7.03
2023-05-21T19:56:31.361Z,6.90
2023-05-21T19:58:58.297Z,7.03
2023-05-21T20:01:28.198Z,6.80
2023-05-21T20:03:55.309Z,7.67
2023-05-21T20:06:22.298Z,8.13
2023-05-21T20:08:49.261Z,6.17
2023-05-21T20:11:16.314Z,6.83
2023-05-21T20:13:43.277Z,6.23
2023-05-21T20:16:10.256Z,6.50
2023-05-21T20:18:39.828Z,8.00
2023-05-21T20:21:06.761Z,8.40
2023-05-21T20:23:33.669Z,8.90
2023-05-21T20:26:00.596Z,8.33
2023-05-21T20:28:27.534Z,7.20
2023-05-21T20:30:55.955Z,6.23
2023-05-21T20:33:22.992Z,5.10
2023-05-21T20:35:52.671Z,5.23
2023-05-21T20:38:19.695Z,5.10
2023-05-21T20:40:46.828Z,5.37
2023-05-21T20:43:13.810Z,5.23
2023-05-21T20:45:41.109Z,5.83
2023-05-21T20:48:08.238Z,5.27
2023-05-21T20:50:35.328Z,6.47
2023-05-21T20:53:04.879Z,6.90
2023-05-21T20:55:31.910Z,8.43
2023-05-21T20:57:58.825Z,9.10
2023-05-21T21:00:25.904Z,8.23
2023-05-21T21:02:52.958Z,8.97
2023-05-21T21:05:20.234Z,9.77
2023-05-21T21:07:47.137Z,10.03
2023-05-21T21:10:16.940Z,9.00
2023-05-21T21:12:43.888Z,9.07
2023-05-21T21:15:10.956Z,7.43
2023-05-21T21:17:37.994Z,6.43
2023-05-21T21:20:06.508Z,6.10
2023-05-21T21:22:33.719Z,6.00
2023-05-21T21:25:00.655Z,6.03
2023-05-21T21:27:30.213Z,7.97
2023-05-21T21:29:57.142Z,7.20
2023-05-21T21:32:24.122Z,6.37
2023-05-21T21:34:51.163Z,10.73
2023-05-21T21:37:18.111Z,7.63
2023-05-21T21:39:45.096Z,7.40
2023-05-21T21:42:12.086Z,7.13
2023-05-21T21:44:41.684Z,7.73
2023-05-21T21:47:08.673Z,6.63
2023-05-21T21:49:35.683Z,6.90
2023-05-21T21:52:02.678Z,7.27
2023-05-21T21:54:29.622Z,6.87
2023-05-21T21:56:56.532Z,6.73
2023-05-21T21:59:23.534Z,6.97
2023-05-21T22:01:53.095Z,7.47
2023-05-21T22:04:20.480Z,6.80
2023-05-21T22:06:47.530Z,6.43
2023-05-21T22:09:14.488Z,6.97
2023-05-21T22:11:41.478Z,6.33
2023-05-21T22:14:08.385Z,6.87
2023-05-21T22:16:35.340Z,6.53
2023-05-21T22:19:04.959Z,6.40
2023-05-21T22:21:31.903Z,6.23
2023-05-21T22:23:59.327Z,6.80
2023-05-21T22:26:26.316Z,7.13
2023-05-21T22:28:53.264Z,7.43
2023-05-21T22:31:20.554Z,7.13
2023-05-21T22:33:47.530Z,7.37
2023-05-21T22:36:17.122Z,6.97
2023-05-21T22:38:44.060Z,7.63
2023-05-21T22:41:11.483Z,7.53
2023-05-21T22:43:38.479Z,8.20
2023-05-21T22:46:05.618Z,8.03
2023-05-21T22:48:32.621Z,7.37
2023-05-21T22:51:00.810Z,7.73
2023-05-21T22:53:30.483Z,7.57
2023-05-21T22:55:57.435Z,7.93
2023-05-21T22:58:24.403Z,7.53
2023-05-21T23:00:51.348Z,8.70
2023-05-21T23:03:18.337Z,8.37
2023-05-21T23:05:46.027Z,7.70
2023-05-21T23:08:13.328Z,8.40
2023-05-21T23:10:42.893Z,8.50
2023-05-21T23:13:09.895Z,7.73
2023-05-21T23:15:36.809Z,7.93
2023-05-21T23:18:04.016Z,8.07
2023-05-21T23:20:31.523Z,7.60
2023-05-21T23:22:58.454Z,8.37
2023-05-21T23:25:25.416Z,8.93
2023-05-21T23:27:54.964Z,8.23
2023-05-21T23:30:22.024Z,8.73
2023-05-21T23:32:49.033Z,7.53
2023-05-21T23:35:16.137Z,7.50
2023-05-21T23:37:43.077Z,7.83
2023-05-21T23:40:11.405Z,7.10
2023-05-21T23:42:38.368Z,7.77
2023-05-21T23:45:08.586Z,7.83
2023-05-21T23:47:35.502Z,8.23
2023-05-21T23:50:02.465Z,8.10
2023-05-21T23:52:29.404Z,8.50
2023-05-21T23:54:56.314Z,8.53
2023-05-21T23:57:23.242Z,8.50
2023-05-21T23:59:50.194Z,8.07
